sensor_id;sensor_type;location;lat;lon;timestamp;P1;durP1;ratioP1;P2;durP2;ratioP2
57551;SDS011;43379;48.160;14.036;2022-10-22T00:01:41;22.87;;;20.60;;
57551;SDS011;43379;48.160;14.036;2022-10-22T00:04:06;22.03;;;19.73;;
57551;SDS011;43379;48.160;14.036;2022-10-22T00:06:32;24.20;;;21.80;;
57551;SDS011;43379;48.160;14.036;2022-10-22T00:08:58;25.10;;;19.53;;
57551;SDS011;43379;48.160;14.036;2022-10-22T00:11:24;24.10;;;21.60;;
57551;SDS011;43379;48.160;14.036;2022-10-22T00:13:50;22.57;;;20.43;;
57551;SDS011;43379;48.160;14.036;2022-10-22T00:16:15;22.67;;;20.77;;
57551;SDS011;43379;48.160;14.036;2022-10-22T00:18:41;21.53;;;19.40;;
57551;SDS011;43379;48.160;14.036;2022-10-22T00:21:07;22.03;;;19.83;;
57551;SDS011;43379;48.160;14.036;2022-10-22T00:23:33;21.13;;;19.00;;
57551;SDS011;43379;48.160;14.036;2022-10-22T00:25:59;23.27;;;20.90;;
57551;SDS011;43379;48.160;14.036;2022-10-22T00:28:25;22.00;;;19.90;;
57551;SDS011;43379;48.160;14.036;2022-10-22T00:30:57;23.37;;;21.17;;
57551;SDS011;43379;48.160;14.036;2022-10-22T00:33:24;22.00;;;19.90;;
57551;SDS011;43379;48.160;14.036;2022-10-22T00:35:51;22.97;;;21.00;;
57551;SDS011;43379;48.160;14.036;2022-10-22T00:38:16;21.40;;;19.33;;
57551;SDS011;43379;48.160;14.036;2022-10-22T00:40:42;23.70;;;21.40;;
57551;SDS011;43379;48.160;14.036;2022-10-22T00:43:11;21.83;;;19.90;;
57551;SDS011;43379;48.160;14.036;2022-10-22T00:45:38;24.20;;;22.00;;
57551;SDS011;43379;48.160;14.036;2022-10-22T00:48:05;23.00;;;20.80;;
57551;SDS011;43379;48.160;14.036;2022-10-22T00:50:55;24.13;;;21.47;;
57551;SDS011;43379;48.160;14.036;2022-10-22T00:53:37;24.23;;;21.83;;
57551;SDS011;43379;48.160;14.036;2022-10-22T00:56:08;22.30;;;20.00;;
57551;SDS011;43379;48.160;14.036;2022-10-22T00:58:36;22.00;;;19.90;;
57551;SDS011;43379;48.160;14.036;2022-10-22T01:01:05;23.30;;;20.80;;
57551;SDS011;43379;48.160;14.036;2022-10-22T01:03:36;24.50;;;21.30;;
57551;SDS011;43379;48.160;14.036;2022-10-22T01:06:02;22.07;;;19.97;;
57551;SDS011;43379;48.160;14.036;2022-10-22T01:08:38;22.67;;;20.57;;
57551;SDS011;43379;48.160;14.036;2022-10-22T01:11:14;22.93;;;20.73;;
57551;SDS011;43379;48.160;14.036;2022-10-22T01:14:18;23.33;;;20.83;;
57551;SDS011;43379;48.160;14.036;2022-10-22T01:16:53;22.20;;;20.10;;
57551;SDS011;43379;48.160;14.036;2022-10-22T01:30:05;21.30;;;19.43;;
57551;SDS011;43379;48.160;14.036;2022-10-22T01:32:35;24.57;;;22.17;;
57551;SDS011;43379;48.160;14.036;2022-10-22T01:35:08;23.23;;;21.03;;
57551;SDS011;43379;48.160;14.036;2022-10-22T01:37:39;23.43;;;21.23;;
57551;SDS011;43379;48.160;14.036;2022-10-22T01:40:10;22.33;;;20.00;;
57551;SDS011;43379;48.160;14.036;2022-10-22T01:42:37;22.77;;;20.27;;
57551;SDS011;43379;48.160;14.036;2022-10-22T01:45:09;26.40;;;21.67;;
57551;SDS011;43379;48.160;14.036;2022-10-22T01:47:46;21.23;;;19.53;;
57551;SDS011;43379;48.160;14.036;2022-10-22T01:53:17;23.23;;;21.23;;
57551;SDS011;43379;48.160;14.036;2022-10-22T01:55:57;24.87;;;22.17;;
57551;SDS011;43379;48.160;14.036;2022-10-22T02:01:38;22.57;;;20.27;;
57551;SDS011;43379;48.160;14.036;2022-10-22T02:04:22;24.47;;;22.13;;
57551;SDS011;43379;48.160;14.036;2022-10-22T02:06:58;23.73;;;21.33;;
57551;SDS011;43379;48.160;14.036;2022-10-22T02:09:29;23.77;;;21.37;;
57551;SDS011;43379;48.160;14.036;2022-10-22T02:11:57;23.43;;;21.23;;
57551;SDS011;43379;48.160;14.036;2022-10-22T02:14:23;23.50;;;21.33;;
57551;SDS011;43379;48.160;14.036;2022-10-22T02:16:52;23.17;;;21.00;;
57551;SDS011;43379;48.160;14.036;2022-10-22T02:19:21;22.93;;;20.73;;
57551;SDS011;43379;48.160;14.036;2022-10-22T02:21:52;24.73;;;21.83;;
57551;SDS011;43379;48.160;14.036;2022-10-22T02:24:18;23.93;;;21.67;;
57551;SDS011;43379;48.160;14.036;2022-10-22T02:29:42;23.73;;;21.33;;
57551;SDS011;43379;48.160;14.036;2022-10-22T02:32:19;23.90;;;21.70;;
57551;SDS011;43379;48.160;14.036;2022-10-22T02:34:48;23.87;;;21.57;;
57551;SDS011;43379;48.160;14.036;2022-10-22T02:37:16;21.23;;;19.23;;
57551;SDS011;43379;48.160;14.036;2022-10-22T02:39:43;23.03;;;20.80;;
57551;SDS011;43379;48.160;14.036;2022-10-22T02:42:09;22.37;;;20.20;;
57551;SDS011;43379;48.160;14.036;2022-10-22T02:44:36;22.50;;;20.47;;
57551;SDS011;43379;48.160;14.036;2022-10-22T02:47:02;23.90;;;21.60;;
57551;SDS011;43379;48.160;14.036;2022-10-22T02:49:28;25.33;;;23.03;;
57551;SDS011;43379;48.160;14.036;2022-10-22T02:51:54;23.20;;;20.90;;
57551;SDS011;43379;48.160;14.036;2022-10-22T02:54:19;23.53;;;21.43;;
57551;SDS011;43379;48.160;14.036;2022-10-22T02:56:45;22.50;;;20.43;;
57551;SDS011;43379;48.160;14.036;2022-10-22T02:59:11;23.10;;;20.60;;
57551;SDS011;43379;48.160;14.036;2022-10-22T03:01:36;23.57;;;21.17;;
57551;SDS011;43379;48.160;14.036;2022-10-22T03:04:02;23.67;;;21.30;;
57551;SDS011;43379;48.160;14.036;2022-10-22T03:06:28;23.10;;;20.87;;
57551;SDS011;43379;48.160;14.036;2022-10-22T03:08:54;23.20;;;21.10;;
57551;SDS011;43379;48.160;14.036;2022-10-22T03:11:19;23.03;;;20.90;;
57551;SDS011;43379;48.160;14.036;2022-10-22T03:13:45;23.17;;;20.83;;
57551;SDS011;43379;48.160;14.036;2022-10-22T03:16:11;23.03;;;20.30;;
57551;SDS011;43379;48.160;14.036;2022-10-22T03:18:36;22.90;;;20.60;;
57551;SDS011;43379;48.160;14.036;2022-10-22T03:23:56;23.10;;;20.70;;
57551;SDS011;43379;48.160;14.036;2022-10-22T03:26:23;27.30;;;21.87;;
57551;SDS011;43379;48.160;14.036;2022-10-22T03:28:49;28.33;;;23.40;;
57551;SDS011;43379;48.160;14.036;2022-10-22T03:31:15;24.50;;;21.97;;
57551;SDS011;43379;48.160;14.036;2022-10-22T03:33:41;22.63;;;20.57;;
57551;SDS011;43379;48.160;14.036;2022-10-22T03:36:07;23.47;;;21.10;;
57551;SDS011;43379;48.160;14.036;2022-10-22T03:38:34;22.63;;;20.23;;
57551;SDS011;43379;48.160;14.036;2022-10-22T03:41:01;21.97;;;19.87;;
57551;SDS011;43379;48.160;14.036;2022-10-22T03:43:27;22.47;;;20.20;;
57551;SDS011;43379;48.160;14.036;2022-10-22T03:45:53;22.50;;;20.43;;
57551;SDS011;43379;48.160;14.036;2022-10-22T03:48:19;21.73;;;19.63;;
57551;SDS011;43379;48.160;14.036;2022-10-22T03:50:44;23.03;;;20.80;;
57551;SDS011;43379;48.160;14.036;2022-10-22T03:53:10;21.93;;;19.83;;
57551;SDS011;43379;48.160;14.036;2022-10-22T03:55:36;22.90;;;20.70;;
57551;SDS011;43379;48.160;14.036;2022-10-22T03:58:04;22.30;;;20.10;;
57551;SDS011;43379;48.160;14.036;2022-10-22T04:00:30;21.73;;;19.73;;
57551;SDS011;43379;48.160;14.036;2022-10-22T04:02:56;23.77;;;21.20;;
57551;SDS011;43379;48.160;14.036;2022-10-22T04:05:22;24.83;;;21.20;;
57551;SDS011;43379;48.160;14.036;2022-10-22T04:07:47;23.13;;;20.73;;
57551;SDS011;43379;48.160;14.036;2022-10-22T04:10:13;22.87;;;20.63;;
57551;SDS011;43379;48.160;14.036;2022-10-22T04:12:39;23.70;;;21.30;;
57551;SDS011;43379;48.160;14.036;2022-10-22T04:15:05;21.83;;;19.57;;
57551;SDS011;43379;48.160;14.036;2022-10-22T04:17:34;22.37;;;20.17;;
57551;SDS011;43379;48.160;14.036;2022-10-22T04:20:00;23.40;;;21.10;;
57551;SDS011;43379;48.160;14.036;2022-10-22T04:22:27;24.63;;;22.03;;
57551;SDS011;43379;48.160;14.036;2022-10-22T04:24:53;22.77;;;20.30;;
57551;SDS011;43379;48.160;14.036;2022-10-22T04:27:18;22.67;;;20.37;;
57551;SDS011;43379;48.160;14.036;2022-10-22T04:29:44;22.47;;;20.23;;
57551;SDS011;43379;48.160;14.036;2022-10-22T04:32:10;22.87;;;20.57;;
57551;SDS011;43379;48.160;14.036;2022-10-22T04:34:35;26.27;;;20.57;;
57551;SDS011;43379;48.160;14.036;2022-10-22T04:37:01;24.33;;;21.70;;
57551;SDS011;43379;48.160;14.036;2022-10-22T04:39:27;24.00;;;21.70;;
57551;SDS011;43379;48.160;14.036;2022-10-22T04:41:53;24.33;;;21.87;;
57551;SDS011;43379;48.160;14.036;2022-10-22T04:44:18;23.57;;;21.27;;
57551;SDS011;43379;48.160;14.036;2022-10-22T04:46:44;23.30;;;21.10;;
57551;SDS011;43379;48.160;14.036;2022-10-22T04:49:10;22.00;;;19.90;;
57551;SDS011;43379;48.160;14.036;2022-10-22T04:51:35;23.73;;;21.50;;
57551;SDS011;43379;48.160;14.036;2022-10-22T04:54:01;25.17;;;22.87;;
57551;SDS011;43379;48.160;14.036;2022-10-22T04:56:28;23.83;;;21.47;;
57551;SDS011;43379;48.160;14.036;2022-10-22T04:58:59;23.77;;;21.50;;
57551;SDS011;43379;48.160;14.036;2022-10-22T05:01:27;25.73;;;19.97;;
57551;SDS011;43379;48.160;14.036;2022-10-22T05:03:55;23.90;;;21.53;;
57551;SDS011;43379;48.160;14.036;2022-10-22T05:06:23;24.60;;;22.10;;
57551;SDS011;43379;48.160;14.036;2022-10-22T05:09:09;24.77;;;22.23;;
57551;SDS011;43379;48.160;14.036;2022-10-22T05:11:37;21.87;;;19.57;;
57551;SDS011;43379;48.160;14.036;2022-10-22T05:14:06;24.60;;;22.30;;
57551;SDS011;43379;48.160;14.036;2022-10-22T05:16:32;24.83;;;22.23;;
57551;SDS011;43379;48.160;14.036;2022-10-22T05:18:59;25.17;;;20.87;;
57551;SDS011;43379;48.160;14.036;2022-10-22T05:21:25;23.93;;;21.73;;
57551;SDS011;43379;48.160;14.036;2022-10-22T05:23:52;23.83;;;21.53;;
57551;SDS011;43379;48.160;14.036;2022-10-22T05:26:19;24.40;;;21.97;;
57551;SDS011;43379;48.160;14.036;2022-10-22T05:28:46;24.47;;;21.97;;
57551;SDS011;43379;48.160;14.036;2022-10-22T05:31:13;23.60;;;21.57;;
57551;SDS011;43379;48.160;14.036;2022-10-22T05:33:39;23.67;;;21.27;;
57551;SDS011;43379;48.160;14.036;2022-10-22T05:36:06;23.67;;;21.37;;
57551;SDS011;43379;48.160;14.036;2022-10-22T05:38:34;23.30;;;20.90;;
57551;SDS011;43379;48.160;14.036;2022-10-22T05:41:01;24.53;;;21.83;;
57551;SDS011;43379;48.160;14.036;2022-10-22T05:43:29;22.40;;;20.20;;
57551;SDS011;43379;48.160;14.036;2022-10-22T05:45:55;23.60;;;21.30;;
57551;SDS011;43379;48.160;14.036;2022-10-22T05:48:20;24.63;;;22.03;;
57551;SDS011;43379;48.160;14.036;2022-10-22T05:50:46;24.17;;;21.73;;
57551;SDS011;43379;48.160;14.036;2022-10-22T05:53:15;23.87;;;21.57;;
57551;SDS011;43379;48.160;14.036;2022-10-22T05:55:42;24.37;;;22.07;;
57551;SDS011;43379;48.160;14.036;2022-10-22T05:58:09;24.53;;;22.33;;
57551;SDS011;43379;48.160;14.036;2022-10-22T06:00:36;23.47;;;21.13;;
57551;SDS011;43379;48.160;14.036;2022-10-22T06:03:02;23.10;;;21.00;;
57551;SDS011;43379;48.160;14.036;2022-10-22T06:05:28;23.80;;;21.60;;
57551;SDS011;43379;48.160;14.036;2022-10-22T06:07:53;22.97;;;20.57;;
57551;SDS011;43379;48.160;14.036;2022-10-22T06:10:21;25.03;;;20.37;;
57551;SDS011;43379;48.160;14.036;2022-10-22T06:12:47;21.73;;;19.53;;
57551;SDS011;43379;48.160;14.036;2022-10-22T06:15:13;22.27;;;20.00;;
57551;SDS011;43379;48.160;14.036;2022-10-22T06:17:43;21.03;;;18.87;;
57551;SDS011;43379;48.160;14.036;2022-10-22T06:20:09;20.40;;;18.37;;
57551;SDS011;43379;48.160;14.036;2022-10-22T06:22:36;21.67;;;19.17;;
57551;SDS011;43379;48.160;14.036;2022-10-22T06:25:02;24.13;;;21.93;;
57551;SDS011;43379;48.160;14.036;2022-10-22T06:27:28;36.00;;;31.87;;
57551;SDS011;43379;48.160;14.036;2022-10-22T06:29:53;32.77;;;29.50;;
57551;SDS011;43379;48.160;14.036;2022-10-22T06:32:19;34.33;;;30.97;;
57551;SDS011;43379;48.160;14.036;2022-10-22T06:34:45;31.73;;;28.57;;
57551;SDS011;43379;48.160;14.036;2022-10-22T06:37:12;34.80;;;31.30;;
57551;SDS011;43379;48.160;14.036;2022-10-22T06:39:39;33.60;;;30.50;;
57551;SDS011;43379;48.160;14.036;2022-10-22T06:42:05;28.73;;;26.33;;
57551;SDS011;43379;48.160;14.036;2022-10-22T06:44:31;23.03;;;20.97;;
57551;SDS011;43379;48.160;14.036;2022-10-22T06:46:57;20.43;;;18.57;;
57551;SDS011;43379;48.160;14.036;2022-10-22T06:49:22;19.37;;;17.57;;
57551;SDS011;43379;48.160;14.036;2022-10-22T06:51:49;22.90;;;18.80;;
57551;SDS011;43379;48.160;14.036;2022-10-22T06:54:15;21.13;;;19.03;;
57551;SDS011;43379;48.160;14.036;2022-10-22T06:56:41;21.20;;;19.20;;
57551;SDS011;43379;48.160;14.036;2022-10-22T06:59:07;20.70;;;18.60;;
57551;SDS011;43379;48.160;14.036;2022-10-22T07:01:33;22.50;;;19.00;;
57551;SDS011;43379;48.160;14.036;2022-10-22T07:03:59;18.20;;;16.60;;
57551;SDS011;43379;48.160;14.036;2022-10-22T07:06:26;16.47;;;15.17;;
57551;SDS011;43379;48.160;14.036;2022-10-22T07:08:53;17.60;;;16.00;;
57551;SDS011;43379;48.160;14.036;2022-10-22T07:11:21;18.03;;;16.27;;
57551;SDS011;43379;48.160;14.036;2022-10-22T07:13:49;18.10;;;16.50;;
57551;SDS011;43379;48.160;14.036;2022-10-22T07:16:15;17.33;;;15.83;;
57551;SDS011;43379;48.160;14.036;2022-10-22T07:18:42;16.63;;;15.10;;
57551;SDS011;43379;48.160;14.036;2022-10-22T07:21:09;15.07;;;13.60;;
57551;SDS011;43379;48.160;14.036;2022-10-22T07:23:36;14.97;;;13.43;;
57551;SDS011;43379;48.160;14.036;2022-10-22T07:26:03;15.43;;;14.07;;
57551;SDS011;43379;48.160;14.036;2022-10-22T07:28:31;14.43;;;13.03;;
57551;SDS011;43379;48.160;14.036;2022-10-22T07:30:57;13.67;;;12.37;;
57551;SDS011;43379;48.160;14.036;2022-10-22T07:33:24;15.23;;;13.90;;
57551;SDS011;43379;48.160;14.036;2022-10-22T07:35:50;14.13;;;12.93;;
57551;SDS011;43379;48.160;14.036;2022-10-22T07:38:21;14.87;;;13.50;;
57551;SDS011;43379;48.160;14.036;2022-10-22T07:40:46;13.90;;;12.60;;
57551;SDS011;43379;48.160;14.036;2022-10-22T07:43:12;13.83;;;12.57;;
57551;SDS011;43379;48.160;14.036;2022-10-22T07:45:38;14.63;;;13.03;;
57551;SDS011;43379;48.160;14.036;2022-10-22T07:48:05;15.27;;;13.80;;
57551;SDS011;43379;48.160;14.036;2022-10-22T07:50:31;12.57;;;11.37;;
57551;SDS011;43379;48.160;14.036;2022-10-22T07:52:57;13.17;;;12.03;;
57551;SDS011;43379;48.160;14.036;2022-10-22T07:55:22;13.80;;;12.70;;
57551;SDS011;43379;48.160;14.036;2022-10-22T07:57:48;13.60;;;12.40;;
57551;SDS011;43379;48.160;14.036;2022-10-22T08:00:14;13.23;;;11.80;;
57551;SDS011;43379;48.160;14.036;2022-10-22T08:02:40;12.93;;;11.70;;
57551;SDS011;43379;48.160;14.036;2022-10-22T08:05:06;15.00;;;13.63;;
57551;SDS011;43379;48.160;14.036;2022-10-22T08:07:32;14.67;;;13.37;;
57551;SDS011;43379;48.160;14.036;2022-10-22T08:09:57;12.30;;;11.10;;
57551;SDS011;43379;48.160;14.036;2022-10-22T08:12:23;13.70;;;12.60;;
57551;SDS011;43379;48.160;14.036;2022-10-22T08:14:49;13.20;;;12.10;;
57551;SDS011;43379;48.160;14.036;2022-10-22T08:17:15;12.90;;;11.80;;
57551;SDS011;43379;48.160;14.036;2022-10-22T08:19:40;11.30;;;10.30;;
57551;SDS011;43379;48.160;14.036;2022-10-22T08:22:06;10.30;;;9.30;;
57551;SDS011;43379;48.160;14.036;2022-10-22T08:24:32;10.00;;;9.00;;
57551;SDS011;43379;48.160;14.036;2022-10-22T08:26:58;9.00;;;8.10;;
57551;SDS011;43379;48.160;14.036;2022-10-22T08:29:24;9.10;;;8.17;;
57551;SDS011;43379;48.160;14.036;2022-10-22T08:31:50;7.70;;;7.00;;
57551;SDS011;43379;48.160;14.036;2022-10-22T08:34:17;7.30;;;6.60;;
57551;SDS011;43379;48.160;14.036;2022-10-22T08:36:43;8.80;;;6.93;;
57551;SDS011;43379;48.160;14.036;2022-10-22T08:39:08;6.90;;;6.20;;
57551;SDS011;43379;48.160;14.036;2022-10-22T08:41:41;9.60;;;6.20;;
57551;SDS011;43379;48.160;14.036;2022-10-22T08:49:39;10.57;;;7.50;;
57551;SDS011;43379;48.160;14.036;2022-10-22T08:52:13;8.13;;;7.27;;
57551;SDS011;43379;48.160;14.036;2022-10-22T09:00:26;6.33;;;5.83;;
57551;SDS011;43379;48.160;14.036;2022-10-22T09:06:06;7.53;;;6.83;;
57551;SDS011;43379;48.160;14.036;2022-10-22T09:08:38;7.60;;;6.73;;
57551;SDS011;43379;48.160;14.036;2022-10-22T09:11:12;8.00;;;7.40;;
57551;SDS011;43379;48.160;14.036;2022-10-22T09:13:49;9.20;;;8.30;;
57551;SDS011;43379;48.160;14.036;2022-10-22T09:16:21;9.50;;;7.70;;
57551;SDS011;43379;48.160;14.036;2022-10-22T09:21:37;9.43;;;8.50;;
57551;SDS011;43379;48.160;14.036;2022-10-22T09:27:13;9.37;;;8.57;;
57551;SDS011;43379;48.160;14.036;2022-10-22T09:29:41;8.13;;;7.33;;
57551;SDS011;43379;48.160;14.036;2022-10-22T09:32:07;8.93;;;8.17;;
57551;SDS011;43379;48.160;14.036;2022-10-22T09:34:33;9.40;;;8.10;;
57551;SDS011;43379;48.160;14.036;2022-10-22T09:36:59;9.03;;;8.13;;
57551;SDS011;43379;48.160;14.036;2022-10-22T09:39:28;9.80;;;9.00;;
57551;SDS011;43379;48.160;14.036;2022-10-22T09:41:57;8.07;;;7.37;;
57551;SDS011;43379;48.160;14.036;2022-10-22T09:44:23;10.03;;;9.10;;
57551;SDS011;43379;48.160;14.036;2022-10-22T09:46:49;7.70;;;7.00;;
57551;SDS011;43379;48.160;14.036;2022-10-22T09:49:16;8.50;;;7.60;;
57551;SDS011;43379;48.160;14.036;2022-10-22T09:51:52;9.17;;;7.90;;
57551;SDS011;43379;48.160;14.036;2022-10-22T09:54:41;10.00;;;9.10;;
57551;SDS011;43379;48.160;14.036;2022-10-22T09:59:41;5.97;;;5.23;;
57551;SDS011;43379;48.160;14.036;2022-10-22T10:02:12;4.10;;;3.70;;
57551;SDS011;43379;48.160;14.036;2022-10-22T10:04:41;3.30;;;3.10;;
57551;SDS011;43379;48.160;14.036;2022-10-22T10:07:30;2.57;;;2.37;;
57551;SDS011;43379;48.160;14.036;2022-10-22T10:09:56;6.77;;;2.70;;
57551;SDS011;43379;48.160;14.036;2022-10-22T10:12:43;3.37;;;2.03;;
57551;SDS011;43379;48.160;14.036;2022-10-22T10:26:13;1.73;;;1.63;;
57551;SDS011;43379;48.160;14.036;2022-10-22T10:31:33;2.63;;;1.90;;
57551;SDS011;43379;48.160;14.036;2022-10-22T10:34:50;3.00;;;2.37;;
57551;SDS011;43379;48.160;14.036;2022-10-22T10:37:27;4.37;;;2.20;;
57551;SDS011;43379;48.160;14.036;2022-10-22T10:43:03;8.57;;;7.73;;
57551;SDS011;43379;48.160;14.036;2022-10-22T10:45:43;12.20;;;9.60;;
57551;SDS011;43379;48.160;14.036;2022-10-22T10:56:53;11.27;;;9.90;;
57551;SDS011;43379;48.160;14.036;2022-10-22T11:05:00;6.93;;;6.27;;
57551;SDS011;43379;48.160;14.036;2022-10-22T11:07:41;5.90;;;5.33;;
57551;SDS011;43379;48.160;14.036;2022-10-22T11:12:46;4.40;;;3.83;;
57551;SDS011;43379;48.160;14.036;2022-10-22T11:17:55;5.77;;;4.40;;
57551;SDS011;43379;48.160;14.036;2022-10-22T11:20:40;4.63;;;3.87;;
57551;SDS011;43379;48.160;14.036;2022-10-22T11:23:15;4.33;;;4.00;;
57551;SDS011;43379;48.160;14.036;2022-10-22T11:25:47;5.13;;;4.63;;
57551;SDS011;43379;48.160;14.036;2022-10-22T11:28:16;5.43;;;4.90;;
57551;SDS011;43379;48.160;14.036;2022-10-22T11:30:55;5.37;;;4.97;;
57551;SDS011;43379;48.160;14.036;2022-10-22T11:33:25;5.00;;;4.60;;
57551;SDS011;43379;48.160;14.036;2022-10-22T11:35:58;5.40;;;4.90;;
57551;SDS011;43379;48.160;14.036;2022-10-22T11:38:25;6.90;;;5.20;;
57551;SDS011;43379;48.160;14.036;2022-10-22T11:40:59;5.30;;;4.83;;
57551;SDS011;43379;48.160;14.036;2022-10-22T11:43:31;5.40;;;4.90;;
57551;SDS011;43379;48.160;14.036;2022-10-22T11:48:40;6.93;;;5.23;;
57551;SDS011;43379;48.160;14.036;2022-10-22T11:54:56;4.40;;;4.00;;
57551;SDS011;43379;48.160;14.036;2022-10-22T11:59:51;5.23;;;4.40;;
57551;SDS011;43379;48.160;14.036;2022-10-22T12:04:54;5.70;;;4.80;;
57551;SDS011;43379;48.160;14.036;2022-10-22T12:07:52;5.77;;;5.27;;
57551;SDS011;43379;48.160;14.036;2022-10-22T12:10:23;4.87;;;4.40;;
57551;SDS011;43379;48.160;14.036;2022-10-22T12:12:54;7.00;;;4.67;;
57551;SDS011;43379;48.160;14.036;2022-10-22T12:15:23;4.53;;;4.13;;
57551;SDS011;43379;48.160;14.036;2022-10-22T12:18:01;6.07;;;5.47;;
57551;SDS011;43379;48.160;14.036;2022-10-22T12:20:29;6.63;;;6.03;;
57551;SDS011;43379;48.160;14.036;2022-10-22T12:22:56;7.47;;;6.73;;
57551;SDS011;43379;48.160;14.036;2022-10-22T12:25:25;9.23;;;8.20;;
57551;SDS011;43379;48.160;14.036;2022-10-22T12:27:57;6.57;;;5.90;;
57551;SDS011;43379;48.160;14.036;2022-10-22T12:30:25;6.20;;;5.00;;
57551;SDS011;43379;48.160;14.036;2022-10-22T12:32:54;5.50;;;5.00;;
57551;SDS011;43379;48.160;14.036;2022-10-22T12:35:25;5.10;;;4.70;;
57551;SDS011;43379;48.160;14.036;2022-10-22T12:37:54;5.00;;;4.60;;
57551;SDS011;43379;48.160;14.036;2022-10-22T12:40:25;5.73;;;4.10;;
57551;SDS011;43379;48.160;14.036;2022-10-22T12:42:57;5.00;;;4.50;;
57551;SDS011;43379;48.160;14.036;2022-10-22T12:45:25;5.03;;;4.10;;
57551;SDS011;43379;48.160;14.036;2022-10-22T12:47:56;4.50;;;4.10;;
57551;SDS011;43379;48.160;14.036;2022-10-22T12:50:26;5.17;;;4.67;;
57551;SDS011;43379;48.160;14.036;2022-10-22T12:53:50;4.53;;;3.87;;
57551;SDS011;43379;48.160;14.036;2022-10-22T12:55:56;5.63;;;5.07;;
57551;SDS011;43379;48.160;14.036;2022-10-22T12:58:27;6.83;;;4.70;;
57551;SDS011;43379;48.160;14.036;2022-10-22T13:00:58;5.60;;;4.17;;
57551;SDS011;43379;48.160;14.036;2022-10-22T13:03:34;5.73;;;4.23;;
57551;SDS011;43379;48.160;14.036;2022-10-22T13:06:10;6.40;;;4.60;;
57551;SDS011;43379;48.160;14.036;2022-10-22T13:09:10;5.93;;;4.13;;
57551;SDS011;43379;48.160;14.036;2022-10-22T13:11:46;4.73;;;4.30;;
57551;SDS011;43379;48.160;14.036;2022-10-22T13:14:18;5.83;;;4.90;;
57551;SDS011;43379;48.160;14.036;2022-10-22T13:19:36;5.07;;;3.90;;
57551;SDS011;43379;48.160;14.036;2022-10-22T13:24:51;3.40;;;3.10;;
57551;SDS011;43379;48.160;14.036;2022-10-22T13:27:17;3.33;;;3.03;;
57551;SDS011;43379;48.160;14.036;2022-10-22T13:29:42;3.90;;;2.90;;
57551;SDS011;43379;48.160;14.036;2022-10-22T13:32:20;5.60;;;2.93;;
57551;SDS011;43379;48.160;14.036;2022-10-22T13:34:53;3.00;;;2.30;;
57551;SDS011;43379;48.160;14.036;2022-10-22T13:37:20;2.73;;;2.50;;
57551;SDS011;43379;48.160;14.036;2022-10-22T13:39:46;3.43;;;2.83;;
57551;SDS011;43379;48.160;14.036;2022-10-22T13:42:12;2.90;;;2.60;;
57551;SDS011;43379;48.160;14.036;2022-10-22T13:44:37;5.93;;;2.10;;
57551;SDS011;43379;48.160;14.036;2022-10-22T13:47:04;2.53;;;2.30;;
57551;SDS011;43379;48.160;14.036;2022-10-22T13:49:49;6.60;;;2.33;;
57551;SDS011;43379;48.160;14.036;2022-10-22T13:52:17;7.67;;;2.30;;
57551;SDS011;43379;48.160;14.036;2022-10-22T13:54:52;1.93;;;1.70;;
57551;SDS011;43379;48.160;14.036;2022-10-22T13:57:17;2.20;;;1.67;;
57551;SDS011;43379;48.160;14.036;2022-10-22T13:59:43;2.03;;;1.80;;
57551;SDS011;43379;48.160;14.036;2022-10-22T14:02:10;1.47;;;1.33;;
57551;SDS011;43379;48.160;14.036;2022-10-22T14:04:38;3.47;;;2.40;;
57551;SDS011;43379;48.160;14.036;2022-10-22T14:07:14;2.33;;;2.00;;
57551;SDS011;43379;48.160;14.036;2022-10-22T14:09:41;2.83;;;2.10;;
57551;SDS011;43379;48.160;14.036;2022-10-22T14:12:16;3.23;;;1.97;;
57551;SDS011;43379;48.160;14.036;2022-10-22T14:14:42;2.70;;;1.83;;
57551;SDS011;43379;48.160;14.036;2022-10-22T14:17:09;1.80;;;1.47;;
57551;SDS011;43379;48.160;14.036;2022-10-22T14:19:40;1.70;;;1.60;;
57551;SDS011;43379;48.160;14.036;2022-10-22T14:22:17;2.20;;;1.50;;
57551;SDS011;43379;48.160;14.036;2022-10-22T14:24:43;2.33;;;2.07;;
57551;SDS011;43379;48.160;14.036;2022-10-22T14:27:10;1.97;;;1.27;;
57551;SDS011;43379;48.160;14.036;2022-10-22T14:29:38;4.93;;;1.30;;
57551;SDS011;43379;48.160;14.036;2022-10-22T14:32:26;5.93;;;1.70;;
57551;SDS011;43379;48.160;14.036;2022-10-22T14:34:51;2.53;;;1.50;;
57551;SDS011;43379;48.160;14.036;2022-10-22T14:37:17;2.20;;;1.50;;
57551;SDS011;43379;48.160;14.036;2022-10-22T14:39:44;2.10;;;1.80;;
57551;SDS011;43379;48.160;14.036;2022-10-22T14:42:15;2.93;;;2.43;;
57551;SDS011;43379;48.160;14.036;2022-10-22T14:44:42;2.50;;;1.60;;
57551;SDS011;43379;48.160;14.036;2022-10-22T14:47:08;1.27;;;1.07;;
57551;SDS011;43379;48.160;14.036;2022-10-22T14:49:33;1.40;;;1.30;;
57551;SDS011;43379;48.160;14.036;2022-10-22T14:51:59;3.27;;;1.37;;
57551;SDS011;43379;48.160;14.036;2022-10-22T14:54:25;2.37;;;2.17;;
57551;SDS011;43379;48.160;14.036;2022-10-22T14:56:50;2.10;;;1.47;;
57551;SDS011;43379;48.160;14.036;2022-10-22T14:59:16;5.27;;;2.00;;
57551;SDS011;43379;48.160;14.036;2022-10-22T15:01:42;2.60;;;1.63;;
57551;SDS011;43379;48.160;14.036;2022-10-22T15:04:08;1.77;;;1.50;;
57551;SDS011;43379;48.160;14.036;2022-10-22T15:06:33;1.87;;;1.67;;
57551;SDS011;43379;48.160;14.036;2022-10-22T15:09:00;1.97;;;1.63;;
57551;SDS011;43379;48.160;14.036;2022-10-22T15:11:26;2.40;;;2.03;;
57551;SDS011;43379;48.160;14.036;2022-10-22T15:13:52;3.57;;;2.87;;
57551;SDS011;43379;48.160;14.036;2022-10-22T15:16:17;2.90;;;1.87;;
57551;SDS011;43379;48.160;14.036;2022-10-22T15:18:43;1.93;;;1.63;;
57551;SDS011;43379;48.160;14.036;2022-10-22T15:21:13;3.97;;;1.80;;
57551;SDS011;43379;48.160;14.036;2022-10-22T15:23:40;2.70;;;2.20;;
57551;SDS011;43379;48.160;14.036;2022-10-22T15:26:09;5.87;;;3.33;;
57551;SDS011;43379;48.160;14.036;2022-10-22T15:28:36;3.33;;;2.60;;
57551;SDS011;43379;48.160;14.036;2022-10-22T15:31:03;10.73;;;2.60;;
57551;SDS011;43379;48.160;14.036;2022-10-22T15:33:29;3.40;;;2.30;;
57551;SDS011;43379;48.160;14.036;2022-10-22T15:35:55;2.50;;;2.27;;
57551;SDS011;43379;48.160;14.036;2022-10-22T15:38:25;2.70;;;2.10;;
57551;SDS011;43379;48.160;14.036;2022-10-22T15:40:59;3.30;;;2.70;;
57551;SDS011;43379;48.160;14.036;2022-10-22T15:43:25;3.13;;;2.83;;
57551;SDS011;43379;48.160;14.036;2022-10-22T15:45:55;4.00;;;3.10;;
57551;SDS011;43379;48.160;14.036;2022-10-22T15:48:33;4.00;;;3.60;;
57551;SDS011;43379;48.160;14.036;2022-10-22T15:50:59;3.37;;;2.80;;
57551;SDS011;43379;48.160;14.036;2022-10-22T15:53:25;3.27;;;2.97;;
57551;SDS011;43379;48.160;14.036;2022-10-22T15:55:50;2.80;;;2.60;;
57551;SDS011;43379;48.160;14.036;2022-10-22T15:58:16;4.30;;;3.97;;
57551;SDS011;43379;48.160;14.036;2022-10-22T16:00:42;5.80;;;5.20;;
57551;SDS011;43379;48.160;14.036;2022-10-22T16:03:07;5.27;;;4.80;;
57551;SDS011;43379;48.160;14.036;2022-10-22T16:05:33;5.13;;;4.50;;
57551;SDS011;43379;48.160;14.036;2022-10-22T16:07:58;5.20;;;4.80;;
57551;SDS011;43379;48.160;14.036;2022-10-22T16:10:24;6.83;;;6.17;;